createdAt,value
2019-05-26T00:00:21.099Z,0.00
2019-05-26T00:01:21.060Z,0.00
2019-05-26T00:02:21.036Z,0.00
2019-05-26T00:03:21.058Z,0.00
2019-05-26T00:04:21.072Z,0.00
2019-05-26T00:05:21.015Z,0.00
2019-05-26T00:06:21.018Z,0.00
2019-05-26T00:07:30.224Z,0.00
2019-05-26T00:08:21.987Z,0.00
2019-05-26T00:09:20.972Z,0.00
2019-05-26T00:10:20.995Z,0.00
2019-05-26T00:11:20.954Z,0.00
2019-05-26T00:12:20.938Z,0.00
2019-05-26T00:13:20.931Z,0.00
2019-05-26T00:14:20.956Z,0.00
2019-05-26T00:15:20.904Z,0.00
2019-05-26T00:16:20.959Z,0.00
2019-05-26T00:17:20.874Z,0.00
2019-05-26T00:18:20.911Z,0.00
2019-05-26T00:19:20.876Z,0.00
2019-05-26T00:20:20.851Z,0.00
2019-05-26T00:21:20.841Z,0.00
2019-05-26T00:22:20.920Z,0.00
2019-05-26T00:23:20.821Z,0.00
2019-05-26T00:24:20.843Z,0.00
2019-05-26T00:25:20.809Z,0.00
2019-05-26T00:26:20.783Z,0.00
2019-05-26T00:27:20.772Z,0.00
2019-05-26T00:28:20.761Z,0.00
2019-05-26T00:29:20.766Z,0.00
2019-05-26T00:30:20.784Z,0.00
2019-05-26T00:31:20.734Z,0.00
2019-05-26T00:32:20.725Z,0.00
2019-05-26T00:33:20.723Z,0.00
2019-05-26T00:34:20.705Z,0.00
2019-05-26T00:35:20.697Z,0.00
2019-05-26T00:36:20.702Z,0.00
2019-05-26T00:37:20.683Z,0.00
2019-05-26T00:38:20.662Z,0.00
2019-05-26T00:39:20.639Z,0.00
2019-05-26T00:40:20.637Z,0.00
2019-05-26T00:41:20.627Z,0.00
2019-05-26T00:42:20.614Z,0.00
2019-05-26T00:43:20.639Z,0.00
2019-05-26T00:44:20.599Z,0.00
2019-05-26T00:45:20.573Z,0.00
2019-05-26T00:46:20.564Z,0.00
2019-05-26T00:47:20.558Z,0.00
2019-05-26T00:48:20.549Z,0.00
2019-05-26T00:49:20.614Z,0.00
2019-05-26T00:50:20.527Z,0.00
2019-05-26T00:51:20.518Z,0.00
2019-05-26T00:52:20.502Z,0.00
2019-05-26T00:53:20.512Z,0.00
2019-05-26T00:54:20.490Z,0.00
2019-05-26T00:55:20.515Z,0.00
2019-05-26T00:56:20.458Z,0.00
2019-05-26T00:57:20.453Z,0.00
2019-05-26T00:58:20.441Z,0.00
2019-05-26T00:59:20.443Z,0.00
2019-05-26T01:00:20.406Z,0.00
2019-05-26T01:01:20.430Z,0.00
2019-05-26T01:02:20.384Z,0.00
2019-05-26T01:03:20.376Z,0.00
2019-05-26T01:04:20.368Z,0.00
2019-05-26T01:05:20.371Z,0.00
2019-05-26T01:06:20.369Z,0.00
2019-05-26T01:07:20.362Z,0.00
2019-05-26T01:08:20.321Z,0.00
2019-05-26T01:09:20.432Z,0.00
2019-05-26T01:10:20.301Z,0.00
2019-05-26T01:11:20.294Z,0.00
2019-05-26T01:12:20.279Z,0.00
2019-05-26T01:13:20.302Z,0.00
2019-05-26T01:14:20.268Z,0.00
2019-05-26T01:15:20.228Z,0.00
2019-05-26T01:16:20.227Z,0.00
2019-05-26T01:17:20.230Z,0.00
2019-05-26T01:18:20.211Z,0.00
2019-05-26T01:19:20.230Z,0.00
2019-05-26T01:20:20.201Z,0.00
2019-05-26T01:21:20.186Z,0.00
2019-05-26T01:22:20.181Z,0.00
2019-05-26T01:23:20.159Z,0.00
2019-05-26T01:24:20.191Z,0.00
2019-05-26T01:25:20.136Z,0.00
2019-05-26T01:26:20.110Z,0.00
2019-05-26T01:27:20.111Z,0.00
2019-05-26T01:28:20.103Z,0.00
2019-05-26T01:29:20.091Z,0.00
2019-05-26T01:30:20.124Z,0.00
2019-05-26T01:31:20.056Z,0.00
2019-05-26T01:32:20.046Z,0.00
2019-05-26T01:33:20.040Z,0.00
2019-05-26T01:34:20.030Z,0.00
2019-05-26T01:35:20.013Z,0.00
2019-05-26T01:36:20.055Z,0.00
2019-05-26T01:37:20.024Z,0.00
2019-05-26T01:38:24.109Z,0.00
2019-05-26T01:39:20.037Z,0.00
2019-05-26T01:40:19.967Z,0.00
2019-05-26T01:41:19.946Z,0.00
2019-05-26T01:42:19.986Z,0.00
2019-05-26T01:43:19.929Z,0.00
2019-05-26T01:44:19.905Z,0.00
2019-05-26T01:45:19.918Z,0.00
2019-05-26T01:46:19.887Z,0.00
2019-05-26T01:47:19.875Z,0.00
2019-05-26T01:48:19.946Z,0.00
2019-05-26T01:49:19.896Z,0.00
2019-05-26T01:50:19.848Z,0.00
2019-05-26T01:51:19.904Z,0.00
2019-05-26T01:52:19.834Z,0.00
2019-05-26T01:53:19.836Z,0.00
2019-05-26T01:54:19.849Z,0.00
2019-05-26T01:55:19.804Z,0.00
2019-05-26T01:56:19.789Z,0.00
2019-05-26T01:57:19.774Z,0.00
2019-05-26T01:58:19.762Z,0.00
2019-05-26T01:59:19.749Z,0.00
2019-05-26T02:00:19.782Z,0.00
2019-05-26T02:01:19.737Z,0.00
2019-05-26T02:02:19.725Z,0.00
2019-05-26T02:03:19.717Z,0.00
2019-05-26T02:04:19.694Z,0.00
2019-05-26T02:05:19.678Z,0.00
2019-05-26T02:06:19.699Z,0.00
2019-05-26T02:07:19.663Z,0.00
2019-05-26T02:08:19.657Z,0.00
2019-05-26T02:09:19.639Z,0.00
2019-05-26T02:10:19.625Z,0.00
2019-05-26T02:11:19.654Z,0.00
2019-05-26T02:12:19.607Z,0.00
2019-05-26T02:13:19.601Z,0.00
2019-05-26T02:14:19.583Z,0.00
2019-05-26T02:15:19.580Z,0.00
2019-05-26T02:16:19.558Z,0.00
2019-05-26T02:17:19.584Z,0.00
2019-05-26T02:18:19.575Z,0.00
2019-05-26T02:19:19.537Z,0.00
2019-05-26T02:20:19.530Z,0.00
2019-05-26T02:21:19.523Z,0.00
2019-05-26T02:22:19.499Z,0.00
2019-05-26T02:23:19.476Z,0.00
2019-05-26T02:24:19.517Z,0.00
2019-05-26T02:25:19.455Z,0.00
2019-05-26T02:26:19.492Z,0.00
2019-05-26T02:27:19.441Z,0.00
2019-05-26T02:28:19.429Z,0.00
2019-05-26T02:29:19.415Z,0.00
2019-05-26T02:30:19.430Z,0.00
2019-05-26T02:31:19.430Z,0.00
2019-05-26T02:32:19.389Z,0.00
2019-05-26T02:33:19.411Z,0.00
2019-05-26T02:34:19.356Z,0.00
2019-05-26T02:35:19.357Z,0.00
2019-05-26T02:36:19.350Z,0.00
2019-05-26T02:37:19.321Z,0.00
2019-05-26T02:38:19.379Z,0.00
2019-05-26T02:39:19.304Z,0.00
2019-05-26T02:40:19.307Z,0.00
2019-05-26T02:41:19.299Z,0.00
2019-05-26T02:42:19.282Z,0.00
2019-05-26T02:43:19.271Z,0.00
2019-05-26T02:44:19.290Z,0.00
2019-05-26T02:45:19.230Z,0.00
2019-05-26T02:46:19.371Z,0.00
2019-05-26T02:47:19.210Z,0.00
2019-05-26T02:48:19.351Z,0.00
2019-05-26T02:49:19.199Z,0.00
2019-05-26T02:50:19.358Z,0.00
2019-05-26T02:51:19.169Z,0.00
2019-05-26T02:52:19.168Z,0.00
2019-05-26T02:53:23.752Z,0.00
2019-05-26T02:54:20.136Z,0.00
2019-05-26T02:55:19.164Z,0.00
2019-05-26T02:56:19.140Z,0.00
2019-05-26T02:57:19.095Z,0.00
2019-05-26T02:58:19.088Z,0.00
2019-05-26T02:59:19.098Z,0.00
2019-05-26T03:00:19.091Z,0.00
2019-05-26T03:01:19.077Z,0.00
2019-05-26T03:02:19.105Z,0.00
2019-05-26T03:03:19.038Z,0.00
2019-05-26T03:04:19.035Z,0.00
2019-05-26T03:05:19.020Z,0.00
2019-05-26T03:06:19.007Z,0.00
2019-05-26T03:07:18.992Z,0.00
2019-05-26T03:08:19.034Z,0.00
2019-05-26T03:09:23.303Z,0.00
2019-05-26T03:10:18.959Z,0.00
2019-05-26T03:11:18.959Z,0.00
2019-05-26T03:12:18.931Z,0.00
2019-05-26T03:13:18.959Z,0.00
2019-05-26T03:14:18.928Z,0.00
2019-05-26T03:15:18.910Z,0.00
2019-05-26T03:16:18.913Z,0.00
2019-05-26T03:17:18.885Z,0.00
2019-05-26T03:18:18.878Z,0.00
2019-05-26T03:19:18.897Z,0.00
2019-05-26T03:20:18.852Z,0.00
2019-05-26T03:21:18.840Z,0.00
2019-05-26T03:22:18.826Z,0.00
2019-05-26T03:23:18.814Z,0.00
2019-05-26T03:24:18.797Z,0.00
2019-05-26T03:25:18.836Z,0.00
2019-05-26T03:26:18.787Z,0.00
2019-05-26T03:27:18.768Z,0.00
2019-05-26T03:28:18.775Z,0.00
2019-05-26T03:29:18.754Z,0.00
2019-05-26T03:30:18.752Z,0.00
2019-05-26T03:31:18.762Z,0.00
2019-05-26T03:32:18.711Z,4.00
2019-05-26T03:33:18.702Z,4.00
2019-05-26T03:34:18.706Z,4.00
2019-05-26T03:35:18.690Z,4.00
2019-05-26T03:36:18.709Z,4.00
2019-05-26T03:37:18.657Z,4.00
2019-05-26T03:38:18.648Z,0.00
2019-05-26T03:39:18.640Z,0.00
2019-05-26T03:40:18.626Z,0.00
2019-05-26T03:41:18.640Z,0.00
2019-05-26T03:42:18.629Z,0.00
2019-05-26T03:43:18.598Z,0.00
2019-05-26T03:44:18.582Z,4.00
2019-05-26T03:45:18.568Z,4.00
2019-05-26T03:46:18.567Z,4.00
2019-05-26T03:47:18.582Z,4.00
2019-05-26T03:48:18.541Z,4.00
2019-05-26T03:49:18.552Z,4.00
2019-05-26T03:50:18.514Z,0.00
2019-05-26T03:51:18.514Z,4.00
2019-05-26T03:52:18.501Z,4.00
2019-05-26T03:53:18.520Z,4.00
2019-05-26T03:54:18.503Z,4.00
2019-05-26T03:55:18.464Z,4.00
2019-05-26T03:56:18.452Z,8.00
2019-05-26T03:57:18.423Z,8.00
2019-05-26T03:58:18.445Z,8.00
2019-05-26T03:59:18.429Z,4.00
2019-05-26T04:00:18.439Z,4.00
2019-05-26T04:01:18.412Z,4.00
2019-05-26T04:02:18.411Z,4.00
2019-05-26T04:03:18.381Z,8.00
2019-05-26T04:04:18.372Z,8.00
2019-05-26T04:05:18.350Z,4.00
2019-05-26T04:06:18.511Z,4.00
2019-05-26T04:07:18.328Z,8.00
2019-05-26T04:08:18.316Z,8.00
2019-05-26T04:09:18.313Z,8.00
2019-05-26T04:10:18.293Z,8.00
2019-05-26T04:11:18.321Z,8.00
2019-05-26T04:12:18.299Z,8.00
2019-05-26T04:13:18.273Z,12.00
2019-05-26T04:14:18.242Z,8.00
2019-05-26T04:15:18.244Z,12.00
2019-05-26T04:16:18.231Z,12.00
2019-05-26T04:17:18.212Z,12.00
2019-05-26T04:18:18.249Z,12.00
2019-05-26T04:19:18.190Z,16.00
2019-05-26T04:20:18.176Z,12.00
2019-05-26T04:21:18.180Z,16.00
2019-05-26T04:22:18.151Z,12.00
2019-05-26T04:23:18.140Z,16.00
2019-05-26T04:24:18.165Z,16.00
2019-05-26T04:25:18.125Z,20.00
2019-05-26T04:26:18.121Z,16.00
2019-05-26T04:27:18.114Z,16.00
2019-05-26T04:28:18.114Z,20.00
2019-05-26T04:29:18.113Z,20.00
2019-05-26T04:30:18.059Z,20.00
2019-05-26T04:31:18.057Z,24.00
2019-05-26T04:32:18.059Z,24.00
2019-05-26T04:33:18.049Z,24.00
2019-05-26T04:34:18.037Z,28.00
2019-05-26T04:35:18.061Z,28.00
2019-05-26T04:36:18.012Z,28.00
2019-05-26T04:37:17.992Z,28.00
2019-05-26T04:38:17.978Z,28.00
2019-05-26T04:39:17.981Z,32.00
2019-05-26T04:40:26.606Z,32.00
2019-05-26T04:41:18.991Z,32.00
2019-05-26T04:42:17.931Z,36.00
2019-05-26T04:43:17.921Z,32.00
2019-05-26T04:44:17.903Z,36.00
2019-05-26T04:45:17.893Z,32.00
2019-05-26T04:46:17.925Z,32.00
2019-05-26T04:47:17.888Z,32.00
2019-05-26T04:48:17.876Z,28.00
2019-05-26T04:49:17.855Z,28.00
2019-05-26T04:50:17.848Z,32.00
2019-05-26T04:51:17.834Z,28.00
2019-05-26T04:52:17.854Z,28.00
2019-05-26T04:53:17.815Z,32.00
2019-05-26T04:54:17.833Z,32.00
2019-05-26T04:55:17.790Z,32.00
2019-05-26T04:56:17.781Z,32.00
2019-05-26T04:57:17.804Z,32.00
2019-05-26T04:58:17.766Z,32.00
2019-05-26T04:59:17.783Z,32.00
2019-05-26T05:00:17.746Z,36.00
2019-05-26T05:01:17.770Z,36.00
2019-05-26T05:02:17.727Z,32.00
2019-05-26T05:03:17.712Z,32.00
2019-05-26T05:04:17.685Z,32.00
2019-05-26T05:05:17.683Z,32.00
2019-05-26T05:06:17.704Z,36.00
2019-05-26T05:07:17.668Z,32.00
2019-05-26T05:08:17.645Z,36.00
2019-05-26T05:09:17.637Z,36.00
2019-05-26T05:10:17.620Z,36.00
2019-05-26T05:11:17.626Z,40.00
2019-05-26T05:12:17.628Z,40.00
2019-05-26T05:13:17.604Z,40.00
2019-05-26T05:14:17.580Z,40.00
2019-05-26T05:15:17.567Z,44.00
2019-05-26T05:16:17.555Z,44.00
2019-05-26T05:17:17.557Z,44.00
2019-05-26T05:18:17.573Z,44.00
2019-05-26T05:19:17.536Z,44.00
2019-05-26T05:20:17.524Z,44.00
2019-05-26T05:21:17.566Z,44.00
2019-05-26T05:22:17.490Z,44.00
2019-05-26T05:23:17.527Z,44.00
2019-05-26T05:24:17.482Z,44.00
2019-05-26T05:25:17.467Z,44.00
2019-05-26T05:26:17.452Z,48.00
2019-05-26T05:27:17.443Z,48.00
2019-05-26T05:28:17.430Z,48.00
2019-05-26T05:29:17.458Z,52.00
2019-05-26T05:30:17.391Z,52.00
2019-05-26T05:31:17.404Z,52.00
2019-05-26T05:32:17.383Z,56.00
2019-05-26T05:33:17.391Z,56.00
2019-05-26T05:34:17.365Z,64.00
2019-05-26T05:35:17.396Z,64.00
2019-05-26T05:36:17.338Z,68.00
2019-05-26T05:37:17.368Z,72.00
2019-05-26T05:38:17.331Z,72.00
2019-05-26T05:39:17.343Z,76.00
2019-05-26T05:40:17.302Z,80.00
2019-05-26T05:41:17.279Z,80.00
2019-05-26T05:42:17.286Z,84.00
2019-05-26T05:43:17.303Z,84.00
2019-05-26T05:44:17.252Z,84.00
2019-05-26T05:45:17.238Z,84.00
2019-05-26T05:46:17.233Z,80.00
2019-05-26T05:47:17.215Z,76.00
2019-05-26T05:48:17.205Z,80.00
2019-05-26T05:49:17.217Z,80.00
2019-05-26T05:50:17.226Z,80.00
2019-05-26T05:51:17.179Z,84.00
2019-05-26T05:52:17.161Z,84.00
2019-05-26T05:53:17.148Z,88.00
2019-05-26T05:54:17.325Z,92.00
2019-05-26T05:55:17.219Z,96.00
2019-05-26T05:56:17.125Z,96.00
2019-05-26T05:57:17.116Z,100.00
2019-05-26T05:58:17.115Z,100.00
2019-05-26T05:59:17.098Z,96.00
2019-05-26T06:00:17.112Z,100.00
2019-05-26T06:01:17.064Z,92.00
2019-05-26T06:02:17.099Z,92.00
2019-05-26T06:03:18.803Z,92.00
2019-05-26T06:04:17.047Z,88.00
2019-05-26T06:05:17.030Z,88.00
2019-05-26T06:06:17.008Z,88.00
2019-05-26T06:07:17.014Z,88.00
2019-05-26T06:08:17.034Z,96.00
2019-05-26T06:09:16.974Z,100.00
2019-05-26T06:10:16.945Z,104.00
2019-05-26T06:11:17.402Z,108.00
2019-05-26T06:12:16.948Z,116.00
2019-05-26T06:13:16.922Z,116.00
2019-05-26T06:14:17.033Z,120.00
2019-05-26T06:15:17.704Z,116.00
2019-05-26T06:16:16.904Z,116.00
2019-05-26T06:17:16.879Z,112.00
2019-05-26T06:18:16.872Z,112.00
2019-05-26T06:19:16.879Z,112.00
2019-05-26T06:20:16.908Z,112.00
2019-05-26T06:21:16.849Z,120.00
2019-05-26T06:22:16.833Z,120.00
2019-05-26T06:23:16.821Z,124.00
2019-05-26T06:24:16.821Z,124.00
2019-05-26T06:25:16.810Z,128.00
2019-05-26T06:26:16.824Z,128.00
2019-05-26T06:27:16.826Z,124.00
2019-05-26T06:28:16.754Z,124.00
2019-05-26T06:29:16.764Z,124.00
2019-05-26T06:30:16.754Z,120.00
2019-05-26T06:31:16.736Z,116.00
2019-05-26T06:32:16.773Z,112.00
2019-05-26T06:33:16.711Z,108.00
2019-05-26T06:34:16.685Z,108.00
2019-05-26T06:35:16.707Z,104.00
2019-05-26T06:36:16.694Z,112.00
2019-05-26T06:37:16.689Z,112.00
2019-05-26T06:38:16.683Z,112.00
2019-05-26T06:39:16.641Z,116.00
2019-05-26T06:40:16.640Z,120.00
2019-05-26T06:41:32.413Z,120.00
2019-05-26T06:42:17.606Z,120.00
2019-05-26T06:43:16.593Z,120.00
2019-05-26T06:44:16.642Z,120.00
2019-05-26T06:45:16.581Z,124.00
2019-05-26T06:46:16.561Z,128.00
2019-05-26T06:47:16.555Z,128.00
2019-05-26T06:48:16.537Z,132.00
2019-05-26T06:49:16.550Z,136.00
2019-05-26T06:50:16.562Z,136.00
2019-05-26T06:51:16.507Z,140.00
2019-05-26T06:52:16.506Z,140.00
2019-05-26T06:53:16.493Z,140.00
2019-05-26T06:54:16.474Z,144.00
2019-05-26T06:55:16.458Z,148.00
2019-05-26T06:56:16.497Z,152.00
2019-05-26T06:57:16.458Z,160.00
2019-05-26T06:58:16.433Z,160.00
2019-05-26T06:59:16.423Z,160.00
2019-05-26T07:00:16.408Z,160.00
2019-05-26T07:01:16.404Z,160.00
2019-05-26T07:02:16.416Z,164.00
2019-05-26T07:03:16.389Z,168.00
2019-05-26T07:04:16.360Z,176.00
2019-05-26T07:05:18.631Z,180.00
2019-05-26T07:06:16.377Z,188.00
2019-05-26T07:07:16.337Z,188.00
2019-05-26T07:08:16.343Z,188.00
2019-05-26T07:09:16.314Z,188.00
2019-05-26T07:10:16.325Z,192.00
2019-05-26T07:11:16.311Z,192.00
2019-05-26T07:12:16.266Z,188.00
2019-05-26T07:13:16.257Z,192.00
2019-05-26T07:14:16.268Z,196.00
2019-05-26T07:15:16.242Z,200.00
2019-05-26T07:16:16.297Z,204.00
2019-05-26T07:17:16.216Z,212.00
2019-05-26T07:18:16.213Z,216.00
2019-05-26T07:19:16.203Z,220.00
2019-05-26T07:20:16.249Z,232.00
2019-05-26T07:21:16.190Z,232.00
2019-05-26T07:22:16.179Z,240.00
2019-05-26T07:23:16.166Z,244.00
2019-05-26T07:24:16.143Z,248.00
2019-05-26T07:25:16.137Z,256.00
2019-05-26T07:26:16.164Z,260.00
2019-05-26T07:27:16.104Z,268.00
2019-05-26T07:28:16.109Z,276.00
2019-05-26T07:29:16.140Z,272.00
2019-05-26T07:30:16.069Z,272.00
2019-05-26T07:31:16.045Z,268.00
2019-05-26T07:32:16.104Z,260.00
2019-05-26T07:33:16.051Z,264.00
2019-05-26T07:34:16.060Z,264.00
2019-05-26T07:35:16.031Z,280.00
2019-05-26T07:36:16.013Z,296.00
2019-05-26T07:37:16.008Z,312.00
2019-05-26T07:38:16.029Z,328.00
2019-05-26T07:39:15.969Z,344.00
2019-05-26T07:40:15.967Z,352.00
2019-05-26T07:41:15.951Z,360.00
2019-05-26T07:42:15.949Z,364.00
2019-05-26T07:43:16.007Z,368.00
2019-05-26T07:44:15.922Z,368.00
2019-05-26T07:45:15.930Z,376.00
2019-05-26T07:46:15.907Z,396.00
2019-05-26T07:47:15.916Z,424.00
2019-05-26T07:48:15.884Z,412.00
2019-05-26T07:49:15.895Z,420.00
2019-05-26T07:50:15.870Z,412.00
2019-05-26T07:51:15.862Z,412.00
2019-05-26T07:52:15.820Z,416.00
2019-05-26T07:53:15.829Z,428.00
2019-05-26T07:54:25.273Z,468.00
2019-05-26T07:55:16.878Z,504.00
2019-05-26T07:56:15.801Z,528.00
2019-05-26T07:57:15.783Z,600.00
2019-05-26T07:58:15.807Z,676.00
2019-05-26T07:59:15.783Z,708.00
2019-05-26T08:00:15.783Z,644.00
2019-05-26T08:01:15.741Z,596.00
2019-05-26T08:02:15.731Z,608.00
2019-05-26T08:03:15.710Z,616.00
2019-05-26T08:04:15.713Z,560.00
2019-05-26T08:05:15.738Z,568.00
2019-05-26T08:06:15.724Z,568.00
2019-05-26T08:07:15.663Z,608.00
2019-05-26T08:08:15.684Z,604.00
2019-05-26T08:09:15.670Z,632.00
2019-05-26T08:10:15.633Z,628.00
2019-05-26T08:11:15.661Z,620.00
2019-05-26T08:12:25.811Z,660.00
2019-05-26T08:13:16.594Z,632.00
2019-05-26T08:14:15.594Z,676.00
2019-05-26T08:15:15.571Z,744.00
2019-05-26T08:16:15.597Z,692.00
2019-05-26T08:17:15.802Z,688.00
2019-05-26T08:18:15.550Z,720.00
2019-05-26T08:19:15.575Z,612.00
2019-05-26T08:20:15.524Z,692.00
2019-05-26T08:21:15.514Z,680.00
2019-05-26T08:22:15.531Z,692.00
2019-05-26T08:23:15.627Z,560.00
2019-05-26T08:24:15.461Z,528.00
2019-05-26T08:25:15.505Z,536.00
2019-05-26T08:26:15.447Z,648.00
2019-05-26T08:27:15.448Z,600.00
2019-05-26T08:28:15.494Z,656.00
2019-05-26T08:29:15.422Z,700.00
2019-05-26T08:30:15.411Z,648.00
2019-05-26T08:31:15.421Z,676.00
2019-05-26T08:32:15.396Z,652.00
2019-05-26T08:33:15.382Z,560.00
2019-05-26T08:34:15.396Z,600.00
2019-05-26T08:35:15.368Z,592.00
2019-05-26T08:36:15.341Z,628.00
2019-05-26T08:37:15.365Z,700.00
2019-05-26T08:38:15.341Z,756.00
2019-05-26T08:39:15.315Z,744.00
2019-05-26T08:40:15.351Z,620.00
2019-05-26T08:41:15.281Z,620.00
2019-05-26T08:42:26.888Z,568.00
2019-05-26T08:43:16.262Z,496.00
2019-05-26T08:44:15.246Z,396.00
2019-05-26T08:45:15.232Z,428.00
2019-05-26T08:46:15.267Z,604.00
2019-05-26T08:47:15.235Z,776.00
2019-05-26T08:48:15.227Z,768.00
2019-05-26T08:49:15.219Z,696.00
2019-05-26T08:50:15.194Z,720.00
2019-05-26T08:51:15.178Z,728.00
2019-05-26T08:52:15.216Z,620.00
2019-05-26T08:53:15.165Z,468.00
2019-05-26T08:54:15.166Z,476.00
2019-05-26T08:55:15.157Z,408.00
2019-05-26T08:56:15.125Z,380.00
2019-05-26T08:57:15.107Z,364.00
2019-05-26T08:58:15.142Z,356.00
2019-05-26T08:59:15.118Z,344.00
2019-05-26T09:00:15.097Z,336.00
2019-05-26T09:01:15.094Z,328.00
2019-05-26T09:02:15.071Z,320.00
2019-05-26T09:03:15.095Z,312.00
2019-05-26T09:04:15.026Z,300.00
2019-05-26T09:05:15.043Z,284.00
2019-05-26T09:06:15.031Z,268.00
2019-05-26T09:07:15.011Z,256.00
2019-05-26T09:08:14.994Z,248.00
2019-05-26T09:09:15.003Z,244.00
2019-05-26T09:10:14.994Z,236.00
2019-05-26T09:11:14.951Z,236.00
2019-05-26T09:12:14.965Z,232.00
2019-05-26T09:13:14.958Z,232.00
2019-05-26T09:14:14.915Z,228.00
2019-05-26T09:15:15.464Z,228.00
2019-05-26T09:16:14.917Z,228.00
2019-05-26T09:17:14.894Z,228.00
2019-05-26T09:18:14.876Z,228.00
2019-05-26T09:19:14.894Z,232.00
2019-05-26T09:20:14.875Z,244.00
2019-05-26T09:21:14.912Z,244.00
2019-05-26T09:22:14.832Z,248.00
2019-05-26T09:23:14.836Z,252.00
2019-05-26T09:24:14.831Z,256.00
2019-05-26T09:25:14.809Z,268.00
2019-05-26T09:26:14.790Z,272.00
2019-05-26T09:27:14.821Z,284.00
2019-05-26T09:28:14.781Z,292.00
2019-05-26T09:29:14.797Z,304.00
2019-05-26T09:30:14.789Z,308.00
2019-05-26T09:31:14.788Z,300.00
2019-05-26T09:32:14.721Z,304.00
2019-05-26T09:33:14.756Z,312.00
2019-05-26T09:34:14.713Z,320.00
2019-05-26T09:35:14.727Z,352.00
2019-05-26T09:36:14.688Z,384.00
2019-05-26T09:37:14.686Z,428.00
2019-05-26T09:38:15.043Z,480.00
2019-05-26T09:39:14.659Z,468.00
2019-05-26T09:40:14.640Z,504.00
2019-05-26T09:41:14.717Z,540.00
2019-05-26T09:42:14.799Z,560.00
2019-05-26T09:43:16.594Z,592.00
2019-05-26T09:44:14.663Z,596.00
2019-05-26T09:45:14.601Z,564.00
2019-05-26T09:46:14.608Z,592.00
2019-05-26T09:47:14.576Z,580.00
2019-05-26T09:48:14.567Z,532.00
2019-05-26T09:49:14.591Z,508.00
2019-05-26T09:50:14.531Z,488.00
2019-05-26T09:51:14.540Z,488.00
2019-05-26T09:52:14.510Z,524.00
2019-05-26T09:53:14.557Z,516.00
2019-05-26T09:54:14.507Z,504.00
2019-05-26T09:55:14.518Z,504.00
2019-05-26T09:56:14.481Z,488.00
2019-05-26T09:57:14.466Z,500.00
2019-05-26T09:58:14.453Z,476.00
2019-05-26T09:59:14.464Z,472.00
2019-05-26T10:00:16.175Z,456.00
2019-05-26T10:01:14.474Z,452.00
2019-05-26T10:02:14.409Z,456.00
2019-05-26T10:03:14.388Z,476.00
2019-05-26T10:04:14.393Z,488.00
2019-05-26T10:05:14.383Z,492.00
2019-05-26T10:06:14.360Z,536.00
2019-05-26T10:07:15.976Z,576.00
2019-05-26T10:08:14.465Z,620.00
2019-05-26T10:09:14.317Z,752.00
2019-05-26T10:10:14.313Z,600.00
2019-05-26T10:11:14.327Z,584.00
2019-05-26T10:12:14.298Z,676.00
2019-05-26T10:13:14.309Z,676.00
2019-05-26T10:14:14.305Z,632.00
2019-05-26T10:15:14.269Z,620.00
2019-05-26T10:16:14.259Z,704.00
2019-05-26T10:17:14.242Z,684.00
2019-05-26T10:18:14.256Z,860.00
2019-05-26T10:19:14.223Z,864.00
2019-05-26T10:20:14.215Z,872.00
2019-05-26T10:21:14.202Z,768.00
2019-05-26T10:22:14.199Z,872.00
2019-05-26T10:23:14.165Z,860.00
2019-05-26T10:24:14.215Z,836.00
2019-05-26T10:25:14.142Z,816.00
2019-05-26T10:26:14.140Z,812.00
2019-05-26T10:27:14.133Z,616.00
2019-05-26T10:28:14.177Z,728.00
2019-05-26T10:29:14.119Z,792.00
2019-05-26T10:30:14.135Z,792.00
2019-05-26T10:31:14.148Z,780.00
2019-05-26T10:32:14.083Z,772.00
2019-05-26T10:33:14.067Z,772.00
2019-05-26T10:34:14.064Z,768.00
2019-05-26T10:35:14.059Z,764.00
2019-05-26T10:36:14.033Z,748.00
2019-05-26T10:37:14.906Z,704.00
2019-05-26T10:38:14.038Z,716.00
2019-05-26T10:39:13.992Z,704.00
2019-05-26T10:40:14.016Z,612.00
2019-05-26T10:41:13.982Z,660.00
2019-05-26T10:42:13.988Z,684.00
2019-05-26T10:43:13.989Z,676.00
2019-05-26T10:44:13.957Z,692.00
2019-05-26T10:45:13.950Z,696.00
2019-05-26T10:46:13.918Z,696.00
2019-05-26T10:47:13.928Z,700.00
2019-05-26T10:48:13.919Z,700.00
2019-05-26T10:49:13.936Z,704.00
2019-05-26T10:50:14.051Z,696.00
2019-05-26T10:51:13.875Z,692.00
2019-05-26T10:52:13.866Z,692.00
2019-05-26T10:53:13.842Z,688.00
2019-05-26T10:54:13.830Z,692.00
2019-05-26T10:55:13.829Z,692.00
2019-05-26T10:56:13.869Z,692.00
2019-05-26T10:57:13.815Z,696.00
2019-05-26T10:58:13.789Z,700.00
2019-05-26T10:59:13.838Z,712.00
2019-05-26T11:00:13.775Z,708.00
2019-05-26T11:01:13.762Z,708.00
2019-05-26T11:02:13.808Z,712.00
2019-05-26T11:03:13.737Z,712.00
2019-05-26T11:04:13.727Z,716.00
2019-05-26T11:05:13.713Z,708.00
2019-05-26T11:06:13.717Z,704.00
2019-05-26T11:07:13.737Z,708.00
2019-05-26T11:08:13.687Z,716.00
2019-05-26T11:09:13.699Z,716.00
2019-05-26T11:10:13.675Z,716.00
2019-05-26T11:11:13.653Z,712.00
2019-05-26T11:12:13.627Z,712.00
2019-05-26T11:13:13.710Z,704.00
2019-05-26T11:14:13.613Z,708.00
2019-05-26T11:15:13.610Z,712.00
2019-05-26T11:16:13.604Z,712.00
2019-05-26T11:17:13.593Z,712.00
2019-05-26T11:18:13.610Z,716.00
2019-05-26T11:19:13.562Z,720.00
2019-05-26T11:20:13.532Z,720.00
2019-05-26T11:21:13.547Z,712.00
2019-05-26T11:22:13.526Z,708.00
2019-05-26T11:23:13.558Z,696.00
2019-05-26T11:24:13.567Z,696.00
2019-05-26T11:25:13.508Z,696.00
2019-05-26T11:26:13.502Z,696.00
2019-05-26T11:27:14.477Z,704.00
2019-05-26T11:28:13.493Z,708.00
2019-05-26T11:29:13.474Z,716.00
2019-05-26T11:30:13.497Z,708.00
2019-05-26T11:31:13.429Z,692.00
2019-05-26T11:32:13.452Z,688.00
2019-05-26T11:33:13.411Z,692.00
2019-05-26T11:34:13.421Z,712.00
2019-05-26T11:35:13.392Z,716.00
2019-05-26T11:36:13.434Z,712.00
2019-05-26T11:37:13.359Z,712.00
2019-05-26T11:38:13.374Z,712.00
2019-05-26T11:39:13.380Z,708.00
2019-05-26T11:40:13.319Z,708.00
2019-05-26T11:41:13.349Z,708.00
2019-05-26T11:42:14.285Z,712.00
2019-05-26T11:43:16.745Z,708.00
2019-05-26T11:44:17.837Z,708.00
2019-05-26T11:45:14.350Z,712.00
2019-05-26T11:46:16.440Z,704.00
2019-05-26T11:47:13.255Z,688.00
2019-05-26T11:48:13.256Z,688.00
2019-05-26T11:49:13.241Z,684.00
2019-05-26T11:50:13.218Z,692.00
2019-05-26T11:51:13.240Z,696.00
2019-05-26T11:52:13.232Z,692.00
2019-05-26T11:53:13.207Z,688.00
2019-05-26T11:54:13.188Z,684.00
2019-05-26T11:55:13.193Z,688.00
2019-05-26T11:56:13.156Z,692.00
2019-05-26T11:57:13.160Z,692.00
2019-05-26T11:58:13.180Z,688.00
2019-05-26T11:59:13.203Z,692.00
2019-05-26T12:00:13.574Z,692.00
2019-05-26T12:01:13.115Z,696.00
2019-05-26T12:02:13.099Z,700.00
2019-05-26T12:03:13.103Z,704.00
2019-05-26T12:04:13.113Z,704.00
2019-05-26T12:05:17.083Z,716.00
2019-05-26T12:06:13.057Z,720.00
2019-05-26T12:07:13.067Z,724.00
2019-05-26T12:08:13.033Z,716.00
2019-05-26T12:09:13.035Z,712.00
2019-05-26T12:10:14.386Z,696.00
2019-05-26T12:11:13.015Z,696.00
2019-05-26T12:12:12.994Z,696.00
2019-05-26T12:13:13.009Z,684.00
2019-05-26T12:14:13.023Z,680.00
2019-05-26T12:15:12.968Z,672.00
2019-05-26T12:16:13.021Z,672.00
2019-05-26T12:17:12.952Z,668.00
2019-05-26T12:18:12.934Z,680.00
2019-05-26T12:19:12.929Z,680.00
2019-05-26T12:20:12.942Z,680.00
2019-05-26T12:21:12.953Z,684.00
2019-05-26T12:22:12.937Z,684.00
2019-05-26T12:23:12.881Z,680.00
2019-05-26T12:24:12.872Z,680.00
2019-05-26T12:25:12.882Z,680.00
2019-05-26T12:26:12.828Z,688.00
2019-05-26T12:27:12.862Z,680.00
2019-05-26T12:28:12.828Z,676.00
2019-05-26T12:29:12.808Z,672.00
2019-05-26T12:30:12.782Z,672.00
2019-05-26T12:31:12.803Z,672.00
2019-05-26T12:32:12.785Z,676.00
2019-05-26T12:33:12.821Z,672.00
2019-05-26T12:34:12.752Z,672.00
2019-05-26T12:35:12.774Z,668.00
2019-05-26T12:36:12.805Z,672.00
2019-05-26T12:37:12.723Z,676.00
2019-05-26T12:38:12.738Z,676.00
2019-05-26T12:39:12.748Z,672.00
2019-05-26T12:40:12.694Z,672.00
2019-05-26T12:41:12.713Z,676.00
2019-05-26T12:42:12.691Z,668.00
2019-05-26T12:43:12.638Z,456.00
2019-05-26T12:44:12.683Z,672.00
2019-05-26T12:45:12.629Z,340.00
2019-05-26T12:46:12.632Z,580.00
2019-05-26T12:47:12.638Z,688.00